createdAt,value
2018-04-20T00:00:22.065Z,28.40
2018-04-20T00:01:22.064Z,26.80
2018-04-20T00:02:22.064Z,25.20
2018-04-20T00:03:22.065Z,25.80
2018-04-20T00:04:22.065Z,25.40
2018-04-20T00:05:22.066Z,27.00
2018-04-20T00:06:22.066Z,30.70
2018-04-20T00:07:22.066Z,28.40
2018-04-20T00:08:22.067Z,31.30
2018-04-20T00:09:22.067Z,27.90
2018-04-20T00:10:22.067Z,28.50
2018-04-20T00:11:22.070Z,29.80
2018-04-20T00:12:22.068Z,26.00
2018-04-20T00:13:22.073Z,34.30
2018-04-20T00:14:22.070Z,29.70
2018-04-20T00:15:22.075Z,30.90
2018-04-20T00:16:22.072Z,29.40
2018-04-20T00:17:22.070Z,27.30
2018-04-20T00:18:22.070Z,27.40
2018-04-20T00:19:22.070Z,26.30
2018-04-20T00:20:22.071Z,27.40
2018-04-20T00:21:22.071Z,27.60
2018-04-20T00:22:22.071Z,29.40
2018-04-20T00:23:22.076Z,28.90
2018-04-20T00:24:22.073Z,28.00
2018-04-20T00:25:22.073Z,29.80
2018-04-20T00:26:22.074Z,31.00
2018-04-20T00:27:22.076Z,30.90
2018-04-20T00:28:22.075Z,29.60
2018-04-20T00:29:22.074Z,32.20
2018-04-20T00:30:22.073Z,37.50
2018-04-20T00:31:22.076Z,32.70
2018-04-20T00:32:22.074Z,29.70
2018-04-20T00:33:22.076Z,29.60
2018-04-20T00:34:22.075Z,31.30
2018-04-20T00:35:22.075Z,31.80
2018-04-20T00:36:22.075Z,29.20
2018-04-20T00:37:22.076Z,32.00
2018-04-20T00:38:22.079Z,30.30
2018-04-20T00:39:22.084Z,28.50
2018-04-20T00:40:22.079Z,30.90
2018-04-20T00:41:22.081Z,30.90
2018-04-20T00:42:22.077Z,28.30
2018-04-20T00:43:22.074Z,30.90
2018-04-20T00:44:22.075Z,30.20
2018-04-20T00:45:22.075Z,29.60
2018-04-20T00:46:22.077Z,30.80
2018-04-20T00:47:22.075Z,36.30
2018-04-20T00:48:22.078Z,31.80
2018-04-20T00:49:22.075Z,35.80
2018-04-20T00:50:22.075Z,28.10
2018-04-20T00:51:22.078Z,32.70
2018-04-20T00:52:22.076Z,30.80
2018-04-20T00:53:22.078Z,31.40
2018-04-20T00:54:22.076Z,30.70
2018-04-20T00:55:22.075Z,28.00
2018-04-20T00:56:22.081Z,34.00
2018-04-20T00:57:22.075Z,28.70
2018-04-20T00:58:22.073Z,27.80
2018-04-20T00:59:22.074Z,29.10
2018-04-20T01:00:22.074Z,29.70
2018-04-20T01:01:22.073Z,33.10
2018-04-20T01:02:22.074Z,36.90
2018-04-20T01:03:22.073Z,30.10
2018-04-20T01:04:22.072Z,31.90
2018-04-20T01:05:22.072Z,29.80
2018-04-20T01:06:22.071Z,32.20
2018-04-20T01:07:22.072Z,31.20
2018-04-20T01:08:22.071Z,33.80
2018-04-20T01:09:22.071Z,29.70
2018-04-20T01:10:22.070Z,27.20
2018-04-20T01:11:22.071Z,32.10
2018-04-20T01:12:22.125Z,29.70
2018-04-20T01:13:22.069Z,30.10
2018-04-20T01:14:22.069Z,31.00
2018-04-20T01:15:22.095Z,32.00
2018-04-20T01:16:22.070Z,26.60
2018-04-20T01:17:22.069Z,32.90
2018-04-20T01:18:22.067Z,34.00
2018-04-20T01:19:22.068Z,33.00
2018-04-20T01:20:22.068Z,33.30
2018-04-20T01:21:22.068Z,34.20
2018-04-20T01:22:22.068Z,35.50
2018-04-20T01:23:22.067Z,35.50
2018-04-20T01:24:22.070Z,35.60
2018-04-20T01:25:22.066Z,33.20
2018-04-20T01:26:22.070Z,30.20
2018-04-20T01:27:22.067Z,37.10
2018-04-20T01:28:22.068Z,32.20
2018-04-20T01:29:22.065Z,31.80
2018-04-20T01:30:22.064Z,35.10
2018-04-20T01:31:22.068Z,33.20
2018-04-20T01:32:22.062Z,36.20
2018-04-20T01:33:22.067Z,35.40
2018-04-20T01:34:22.061Z,30.20
2018-04-20T01:35:22.061Z,33.90
2018-04-20T01:36:22.061Z,33.90
2018-04-20T01:37:22.060Z,32.10
2018-04-20T01:38:22.059Z,37.00
2018-04-20T01:39:22.063Z,36.00
2018-04-20T01:40:22.058Z,34.30
2018-04-20T01:41:22.057Z,36.90
2018-04-20T01:42:22.058Z,33.80
2018-04-20T01:43:22.057Z,37.20
2018-04-20T01:44:22.055Z,35.40
2018-04-20T01:45:22.057Z,35.90
2018-04-20T01:46:22.056Z,34.00
2018-04-20T01:47:22.054Z,36.60
2018-04-20T01:48:22.053Z,39.80
2018-04-20T01:49:22.053Z,35.40
2018-04-20T01:50:22.052Z,36.60
2018-04-20T01:51:22.053Z,30.10
2018-04-20T01:52:22.051Z,37.50
2018-04-20T01:53:22.053Z,34.10
2018-04-20T01:54:22.050Z,39.60
2018-04-20T01:55:22.049Z,38.80
2018-04-20T01:56:22.057Z,34.80
2018-04-20T01:57:22.048Z,35.90
2018-04-20T01:58:22.048Z,33.80
2018-04-20T01:59:22.055Z,33.60
2018-04-20T02:00:22.047Z,34.50
2018-04-20T02:01:22.047Z,33.40
2018-04-20T02:02:22.044Z,37.40
2018-04-20T02:03:22.045Z,36.80
2018-04-20T02:04:22.045Z,35.10
2018-04-20T02:05:22.045Z,32.90
2018-04-20T02:06:22.042Z,32.80
2018-04-20T02:07:22.042Z,32.30
2018-04-20T02:08:22.046Z,34.30
2018-04-20T02:09:22.042Z,33.80
2018-04-20T02:10:22.043Z,31.90
2018-04-20T02:11:22.039Z,37.30
2018-04-20T02:12:22.041Z,35.50
2018-04-20T02:13:22.041Z,36.20
2018-04-20T02:14:22.037Z,33.20
2018-04-20T02:15:22.040Z,38.00
2018-04-20T02:16:22.042Z,34.60
2018-04-20T02:17:22.036Z,37.40
2018-04-20T02:18:22.035Z,32.40
2018-04-20T02:19:22.058Z,34.70
2018-04-20T02:20:22.034Z,34.10
2018-04-20T02:21:22.034Z,32.90
2018-04-20T02:22:22.032Z,37.10
2018-04-20T02:23:22.031Z,36.50
2018-04-20T02:24:22.032Z,37.50
2018-04-20T02:25:22.032Z,38.70
2018-04-20T02:26:22.029Z,36.30
2018-04-20T02:27:22.028Z,35.10
2018-04-20T02:28:22.033Z,36.30
2018-04-20T02:29:22.030Z,36.00
2018-04-20T02:30:22.031Z,34.10
2018-04-20T02:31:22.027Z,35.30
2018-04-20T02:32:22.026Z,39.60
2018-04-20T02:33:22.025Z,39.70
2018-04-20T02:34:22.023Z,53.60
2018-04-20T02:35:22.024Z,36.70
2018-04-20T02:36:22.075Z,44.60
2018-04-20T02:37:22.035Z,36.40
2018-04-20T02:38:22.022Z,40.70
2018-04-20T02:39:22.024Z,41.00
2018-04-20T02:40:22.028Z,40.50
2018-04-20T02:41:22.019Z,38.20
2018-04-20T02:42:22.027Z,41.80
2018-04-20T02:43:22.016Z,40.60
2018-04-20T02:44:22.017Z,43.00
2018-04-20T02:45:22.028Z,37.10
2018-04-20T02:46:22.013Z,40.30
2018-04-20T02:47:22.020Z,38.50
2018-04-20T02:48:22.012Z,42.50
2018-04-20T02:49:22.013Z,43.10
2018-04-20T02:50:22.012Z,41.40
2018-04-20T02:51:22.011Z,39.00
2018-04-20T02:52:22.009Z,39.10
2018-04-20T02:53:22.011Z,42.20
2018-04-20T02:54:22.007Z,39.10
2018-04-20T02:55:22.005Z,41.10
2018-04-20T02:56:22.005Z,42.90
2018-04-20T02:57:22.006Z,40.00
2018-04-20T02:58:22.003Z,37.40
2018-04-20T02:59:22.000Z,36.80
2018-04-20T03:00:21.999Z,40.00
2018-04-20T03:01:22.002Z,45.90
2018-04-20T03:02:21.996Z,39.80
2018-04-20T03:03:22.013Z,41.80
2018-04-20T03:04:22.004Z,41.20
2018-04-20T03:05:21.996Z,43.90
2018-04-20T03:06:21.991Z,39.90
2018-04-20T03:07:21.994Z,34.90
2018-04-20T03:08:21.989Z,40.40
2018-04-20T03:09:21.992Z,43.00
2018-04-20T03:10:21.999Z,42.50
2018-04-20T03:11:21.987Z,42.70
2018-04-20T03:12:21.991Z,45.20
2018-04-20T03:13:21.983Z,43.00
2018-04-20T03:14:21.992Z,43.40
2018-04-20T03:15:21.982Z,43.20
2018-04-20T03:16:21.986Z,43.70
2018-04-20T03:17:21.978Z,39.50
2018-04-20T03:18:36.742Z,41.70
2018-04-20T03:19:21.978Z,41.00
2018-04-20T03:20:21.976Z,41.10
2018-04-20T03:21:21.978Z,39.40
2018-04-20T03:22:21.990Z,41.10
2018-04-20T03:23:21.972Z,39.10
2018-04-20T03:24:21.971Z,42.70
2018-04-20T03:25:21.977Z,41.30
2018-04-20T03:26:21.969Z,38.10
2018-04-20T03:27:21.967Z,40.60
2018-04-20T03:28:21.968Z,39.10
2018-04-20T03:29:21.964Z,38.60
2018-04-20T03:30:21.980Z,39.70
2018-04-20T03:31:21.961Z,38.40
2018-04-20T03:32:21.960Z,42.30
2018-04-20T03:33:21.959Z,39.00
2018-04-20T03:34:21.955Z,38.60
2018-04-20T03:35:21.954Z,38.10
2018-04-20T03:36:21.952Z,37.50
2018-04-20T03:37:21.953Z,38.10
2018-04-20T03:38:21.948Z,40.20
2018-04-20T03:39:21.981Z,37.50
2018-04-20T03:40:21.946Z,42.80
2018-04-20T03:41:21.945Z,43.10
2018-04-20T03:42:21.943Z,42.30
2018-04-20T03:43:21.943Z,44.20
2018-04-20T03:44:21.943Z,44.50
2018-04-20T03:45:21.939Z,38.70
2018-04-20T03:46:21.946Z,41.50
2018-04-20T03:47:21.935Z,38.70
2018-04-20T03:48:21.934Z,41.40
2018-04-20T03:49:21.932Z,39.30
2018-04-20T03:50:21.930Z,39.90
2018-04-20T03:51:21.928Z,40.30
2018-04-20T03:52:21.927Z,40.80
2018-04-20T03:53:21.925Z,40.60
2018-04-20T03:54:21.925Z,46.40
2018-04-20T03:55:21.923Z,43.40
2018-04-20T03:56:21.976Z,43.40
2018-04-20T03:57:21.919Z,38.60
2018-04-20T03:58:21.917Z,40.30
2018-04-20T03:59:21.919Z,40.60
2018-04-20T04:00:21.919Z,37.60
2018-04-20T04:01:21.913Z,42.00
2018-04-20T04:02:21.911Z,37.60
2018-04-20T04:03:21.911Z,45.00
2018-04-20T04:04:21.908Z,38.70
2018-04-20T04:05:21.907Z,42.00
2018-04-20T04:06:21.905Z,42.40
2018-04-20T04:07:21.903Z,42.10
2018-04-20T04:08:21.901Z,41.20
2018-04-20T04:09:21.910Z,39.40
2018-04-20T04:10:21.898Z,38.70
2018-04-20T04:11:21.899Z,40.40
2018-04-20T04:12:21.929Z,46.90
2018-04-20T04:13:21.894Z,44.70
2018-04-20T04:14:21.892Z,41.00
2018-04-20T04:15:21.902Z,44.00
2018-04-20T04:16:21.890Z,40.50
2018-04-20T04:17:21.888Z,45.60
2018-04-20T04:18:21.885Z,45.00
2018-04-20T04:19:21.886Z,40.10
2018-04-20T04:20:21.883Z,39.40
2018-04-20T04:21:21.882Z,42.60
2018-04-20T04:22:21.878Z,41.40
2018-04-20T04:23:21.877Z,39.40
2018-04-20T04:24:21.877Z,39.30
2018-04-20T04:25:21.874Z,39.00
2018-04-20T04:26:21.922Z,40.80
2018-04-20T04:27:21.870Z,39.20
2018-04-20T04:28:21.874Z,41.60
2018-04-20T04:29:21.874Z,42.50
2018-04-20T04:30:21.865Z,38.40
2018-04-20T04:31:21.864Z,45.50
2018-04-20T04:32:21.875Z,40.30
2018-04-20T04:33:21.860Z,45.00
2018-04-20T04:34:21.861Z,43.60
2018-04-20T04:35:21.857Z,40.60
2018-04-20T04:36:21.860Z,46.10
2018-04-20T04:37:21.853Z,40.20
2018-04-20T04:38:21.859Z,39.00
2018-04-20T04:39:21.849Z,36.90
2018-04-20T04:40:21.879Z,38.90
2018-04-20T04:41:21.851Z,40.80
2018-04-20T04:42:21.844Z,39.50
2018-04-20T04:43:21.869Z,40.50
2018-04-20T04:44:21.841Z,45.70
2018-04-20T04:45:21.841Z,45.30
2018-04-20T04:46:21.838Z,39.30
2018-04-20T04:47:21.836Z,43.30
2018-04-20T04:48:21.847Z,43.00
2018-04-20T04:49:21.833Z,41.70
2018-04-20T04:50:21.833Z,36.80
2018-04-20T04:51:21.831Z,36.10
2018-04-20T04:52:21.830Z,41.70
2018-04-20T04:53:21.828Z,40.10
2018-04-20T04:54:21.824Z,38.60
2018-04-20T04:55:21.823Z,39.60
2018-04-20T04:56:21.825Z,36.50
2018-04-20T04:57:21.821Z,36.40
2018-04-20T04:58:21.825Z,42.70
2018-04-20T04:59:21.831Z,36.90
2018-04-20T05:00:21.816Z,34.90
2018-04-20T05:01:21.817Z,34.60
2018-04-20T05:02:21.818Z,36.50
2018-04-20T05:03:21.812Z,39.00
2018-04-20T05:04:21.811Z,36.20
2018-04-20T05:05:21.810Z,37.90
2018-04-20T05:06:21.831Z,36.30
2018-04-20T05:07:21.808Z,40.20
2018-04-20T05:08:21.806Z,38.30
2018-04-20T05:09:21.805Z,39.30
2018-04-20T05:10:21.803Z,37.10
2018-04-20T05:11:21.802Z,37.40
2018-04-20T05:12:21.802Z,36.60
2018-04-20T05:13:21.803Z,38.10
2018-04-20T05:14:21.801Z,38.00
2018-04-20T05:15:21.802Z,43.30
2018-04-20T05:16:21.797Z,40.10
2018-04-20T05:17:21.796Z,37.90
2018-04-20T05:18:21.796Z,34.70
2018-04-20T05:19:21.849Z,37.10
2018-04-20T05:20:21.793Z,35.70
2018-04-20T05:21:21.804Z,35.50
2018-04-20T05:22:21.792Z,34.80
2018-04-20T05:23:21.794Z,37.10
2018-04-20T05:24:21.792Z,39.20
2018-04-20T05:25:21.829Z,35.90
2018-04-20T05:26:21.788Z,35.50
2018-04-20T05:27:21.791Z,31.00
2018-04-20T05:28:21.787Z,38.80
2018-04-20T05:29:21.786Z,36.20
2018-04-20T05:30:21.786Z,34.80
2018-04-20T05:31:21.795Z,31.70
2018-04-20T05:32:21.784Z,32.90
2018-04-20T05:33:21.786Z,37.40
2018-04-20T05:34:21.782Z,33.00
2018-04-20T05:35:21.785Z,36.30
2018-04-20T05:36:21.794Z,44.00
2018-04-20T05:37:21.782Z,40.50
2018-04-20T05:38:21.783Z,36.70
2018-04-20T05:39:21.780Z,36.00
2018-04-20T05:40:21.780Z,33.80
2018-04-20T05:41:21.781Z,32.70
2018-04-20T05:42:21.779Z,34.50
2018-04-20T05:43:21.779Z,34.90
2018-04-20T05:44:21.779Z,31.00
2018-04-20T05:45:21.781Z,34.20
2018-04-20T05:46:21.781Z,34.30
2018-04-20T05:47:21.784Z,40.30
2018-04-20T05:48:21.782Z,34.20
2018-04-20T05:49:21.782Z,34.90
2018-04-20T05:50:21.778Z,34.80
2018-04-20T05:51:21.779Z,37.90
2018-04-20T05:52:21.779Z,35.60
2018-04-20T05:53:21.780Z,36.10
2018-04-20T05:54:21.780Z,40.70
2018-04-20T05:55:21.780Z,38.30
2018-04-20T05:56:21.777Z,36.30
2018-04-20T05:57:21.777Z,35.30
2018-04-20T05:58:21.783Z,34.10
2018-04-20T05:59:21.777Z,36.60
2018-04-20T06:00:21.776Z,35.80
2018-04-20T06:01:21.835Z,41.60
2018-04-20T06:02:21.778Z,33.30
2018-04-20T06:03:21.776Z,31.40
2018-04-20T06:04:21.778Z,34.60
2018-04-20T06:05:21.779Z,38.20
2018-04-20T06:06:21.775Z,29.20
2018-04-20T06:07:21.775Z,31.80
2018-04-20T06:08:21.776Z,32.10
2018-04-20T06:09:21.781Z,37.30
2018-04-20T06:10:21.806Z,35.70
2018-04-20T06:11:21.776Z,34.10
2018-04-20T06:12:21.774Z,35.40
2018-04-20T06:13:21.775Z,33.00
2018-04-20T06:14:21.773Z,33.10
2018-04-20T06:15:21.775Z,35.00
2018-04-20T06:16:21.776Z,32.10
2018-04-20T06:17:21.774Z,34.40
2018-04-20T06:18:21.778Z,37.60
2018-04-20T06:19:21.773Z,30.90
2018-04-20T06:20:21.821Z,33.90
2018-04-20T06:21:21.835Z,32.50
2018-04-20T06:22:21.774Z,36.40
2018-04-20T06:23:21.774Z,32.20
2018-04-20T06:24:21.772Z,35.50
2018-04-20T06:25:21.771Z,34.30
2018-04-20T06:26:21.816Z,37.30
2018-04-20T06:27:21.774Z,40.70
2018-04-20T06:28:21.778Z,38.10
2018-04-20T06:29:21.771Z,35.10
2018-04-20T06:30:21.769Z,38.30
2018-04-20T06:31:21.772Z,38.80
2018-04-20T06:32:21.775Z,37.60
2018-04-20T06:33:21.770Z,38.80
2018-04-20T06:34:21.768Z,35.00
2018-04-20T06:35:21.846Z,36.40
2018-04-20T06:36:21.984Z,35.30
2018-04-20T06:37:21.770Z,33.80
2018-04-20T06:38:21.842Z,35.60
2018-04-20T06:39:21.832Z,38.40
2018-04-20T06:40:21.767Z,33.10
2018-04-20T06:41:21.824Z,35.80
2018-04-20T06:42:21.765Z,33.80
2018-04-20T06:43:21.765Z,32.10
2018-04-20T06:44:21.768Z,35.30
2018-04-20T06:45:21.767Z,35.10
2018-04-20T06:46:21.767Z,33.80
2018-04-20T06:47:21.772Z,32.90
2018-04-20T06:48:21.764Z,35.20
2018-04-20T06:49:21.874Z,32.90
2018-04-20T06:50:21.764Z,35.90
2018-04-20T06:51:21.766Z,34.30
2018-04-20T06:52:21.831Z,32.70
2018-04-20T06:53:21.763Z,34.50
2018-04-20T06:54:21.780Z,35.10
2018-04-20T06:55:21.762Z,40.50
2018-04-20T06:56:21.762Z,32.70
2018-04-20T06:57:21.761Z,32.40
2018-04-20T06:58:21.762Z,39.60
2018-04-20T06:59:21.761Z,32.00
2018-04-20T07:00:21.764Z,35.00
2018-04-20T07:01:21.762Z,35.10
2018-04-20T07:02:21.761Z,38.30
2018-04-20T07:03:21.762Z,36.50
2018-04-20T07:04:21.774Z,34.90
2018-04-20T07:05:21.762Z,31.20
2018-04-20T07:06:21.761Z,33.70
2018-04-20T07:07:21.780Z,34.10
2018-04-20T07:08:21.764Z,32.10
2018-04-20T07:09:21.762Z,33.10
2018-04-20T07:10:21.761Z,34.90
2018-04-20T07:11:21.767Z,32.20
2018-04-20T07:12:21.764Z,35.60
2018-04-20T07:13:21.764Z,33.70
2018-04-20T07:14:21.767Z,34.50
2018-04-20T07:15:21.763Z,33.90
2018-04-20T07:16:21.763Z,35.60
2018-04-20T07:17:21.764Z,39.30
2018-04-20T07:18:21.762Z,39.40
2018-04-20T07:19:21.766Z,33.10
2018-04-20T07:20:21.801Z,34.70
2018-04-20T07:21:21.765Z,35.60
2018-04-20T07:22:21.767Z,33.40
2018-04-20T07:23:21.772Z,33.00
2018-04-20T07:24:21.766Z,29.00
2018-04-20T07:25:21.771Z,34.10
2018-04-20T07:26:21.767Z,33.60
2018-04-20T07:27:21.771Z,29.40
2018-04-20T07:28:21.768Z,32.20
2018-04-20T07:29:21.772Z,30.50
2018-04-20T07:30:21.777Z,36.20
2018-04-20T07:31:21.770Z,35.60
2018-04-20T07:32:21.776Z,30.50
2018-04-20T07:33:21.772Z,28.90
2018-04-20T07:34:21.775Z,30.00
2018-04-20T07:35:21.781Z,28.70
2018-04-20T07:36:21.794Z,32.90
2018-04-20T07:37:21.778Z,27.40
2018-04-20T07:38:21.776Z,26.70
2018-04-20T07:39:21.790Z,39.20
2018-04-20T07:40:21.781Z,33.20
2018-04-20T07:41:21.845Z,28.00
2018-04-20T07:42:21.797Z,26.50
2018-04-20T07:43:21.790Z,29.10
2018-04-20T07:44:21.788Z,25.00
2018-04-20T07:45:21.797Z,30.40
2018-04-20T07:46:21.818Z,28.10
2018-04-20T07:47:21.788Z,31.20
2018-04-20T07:48:21.814Z,30.10
2018-04-20T07:49:21.794Z,32.40
2018-04-20T07:50:21.845Z,30.40
2018-04-20T07:51:21.791Z,32.60
2018-04-20T07:52:21.797Z,36.60
2018-04-20T07:53:21.811Z,29.40
2018-04-20T07:54:21.802Z,26.60
2018-04-20T07:55:21.798Z,28.40
2018-04-20T07:56:21.801Z,31.30
2018-04-20T07:57:21.799Z,24.40
2018-04-20T07:58:21.803Z,27.00
2018-04-20T07:59:21.803Z,27.50
2018-04-20T08:00:21.817Z,23.90
2018-04-20T08:01:21.807Z,27.70
2018-04-20T08:02:21.811Z,24.50
2018-04-20T08:03:21.813Z,26.60
2018-04-20T08:04:21.817Z,26.70
2018-04-20T08:05:21.814Z,25.80
2018-04-20T08:06:21.814Z,22.30
2018-04-20T08:07:21.814Z,22.60
2018-04-20T08:08:21.847Z,22.20
2018-04-20T08:09:21.960Z,31.90
2018-04-20T08:10:21.819Z,26.80
2018-04-20T08:11:21.823Z,30.10
2018-04-20T08:12:21.841Z,29.80
2018-04-20T08:13:21.827Z,32.70
2018-04-20T08:14:21.835Z,27.00
2018-04-20T08:15:21.828Z,24.50
2018-04-20T08:16:21.835Z,22.00
2018-04-20T08:17:26.468Z,24.80
2018-04-20T08:18:21.837Z,22.70
2018-04-20T08:20:16.306Z,23.00
2018-04-20T08:21:16.219Z,22.30
2018-04-20T08:23:12.867Z,27.30
2018-04-20T08:24:10.601Z,22.50
2018-04-20T08:25:10.605Z,27.00
2018-04-20T08:26:10.610Z,20.60
2018-04-20T08:27:10.614Z,16.10
2018-04-20T08:28:10.612Z,16.50
2018-04-20T08:29:10.616Z,18.90
2018-04-20T08:30:10.621Z,19.20
2018-04-20T08:31:10.618Z,19.70
2018-04-20T08:32:10.627Z,17.10
2018-04-20T08:33:10.626Z,16.60
2018-04-20T08:34:10.665Z,19.10
2018-04-20T08:35:10.629Z,18.30
2018-04-20T08:36:11.032Z,24.70
2018-04-20T08:37:10.832Z,25.00
2018-04-20T08:38:10.636Z,14.40
2018-04-20T08:39:10.679Z,37.10
2018-04-20T08:40:13.324Z,43.40
2018-04-20T08:41:10.646Z,22.90
2018-04-20T08:43:06.246Z,18.90
2018-04-20T08:44:05.540Z,20.70
2018-04-20T08:45:59.970Z,22.20
2018-04-20T08:47:00.047Z,20.60
2018-04-20T08:48:54.300Z,19.70
2018-04-20T08:49:54.299Z,23.00
2018-04-20T08:51:48.802Z,15.20
2018-04-20T08:52:48.688Z,17.00
2018-04-20T08:54:44.065Z,15.40
2018-04-20T08:55:43.084Z,12.40
2018-04-20T08:57:37.763Z,12.40
2018-04-20T08:58:37.642Z,15.10
2018-04-20T09:00:32.036Z,11.90
2018-04-20T09:01:32.129Z,46.60
2018-04-20T09:03:26.501Z,12.70
2018-04-20T09:04:26.419Z,13.30
2018-04-20T09:06:20.822Z,13.30
2018-04-20T09:07:20.807Z,10.80
2018-04-20T09:09:15.234Z,15.90
2018-04-20T09:10:15.195Z,10.50
2018-04-20T09:12:09.585Z,18.30
2018-04-20T09:13:09.623Z,14.10
2018-04-20T09:15:04.210Z,14.70
2018-04-20T09:16:04.690Z,14.40
2018-04-20T09:17:58.464Z,15.10
2018-04-20T09:18:58.372Z,16.10
2018-04-20T09:20:52.797Z,14.50
2018-04-20T09:21:52.761Z,13.90
2018-04-20T09:23:47.166Z,13.00
2018-04-20T09:24:47.167Z,14.90
2018-04-20T09:26:41.602Z,15.40
2018-04-20T09:27:41.557Z,11.00
2018-04-20T09:29:36.042Z,16.30
2018-04-20T09:30:35.959Z,13.20
2018-04-20T09:32:30.344Z,15.10
2018-04-20T09:33:30.346Z,14.60
2018-04-20T09:35:24.791Z,13.10
2018-04-20T09:36:24.733Z,13.30
2018-04-20T09:38:19.124Z,18.40
2018-04-20T09:39:19.124Z,19.90
2018-04-20T09:41:13.578Z,10.20
2018-04-20T09:42:13.524Z,11.10
2018-04-20T09:44:07.944Z,16.70
2018-04-20T09:45:07.946Z,18.00
2018-04-20T09:47:02.484Z,13.70
2018-04-20T09:48:02.348Z,15.80
2018-04-20T09:49:58.680Z,13.10
2018-04-20T09:50:58.071Z,15.40
2018-04-20T09:52:53.303Z,12.90
2018-04-20T09:53:52.527Z,14.00
2018-04-20T09:55:46.912Z,13.20
2018-04-20T09:56:46.864Z,14.50
2018-04-20T09:58:41.302Z,11.10
2018-04-20T09:59:41.255Z,12.10
2018-04-20T10:01:35.636Z,15.10
2018-04-20T10:02:35.632Z,21.90
2018-04-20T10:04:30.240Z,13.70
2018-04-20T10:05:30.146Z,14.00
2018-04-20T10:07:24.532Z,13.70
2018-04-20T10:08:24.539Z,16.40
2018-04-20T10:10:18.968Z,12.00
2018-04-20T10:11:18.921Z,12.80
2018-04-20T10:13:13.358Z,14.30
2018-04-20T10:14:13.312Z,17.40
2018-04-20T10:16:07.703Z,9.50
2018-04-20T10:17:07.708Z,8.30
2018-04-20T10:19:07.565Z,12.40
2018-04-20T10:20:06.738Z,17.40
2018-04-20T10:22:01.135Z,8.90
2018-04-20T10:23:01.135Z,12.30
2018-04-20T10:24:55.743Z,10.80
2018-04-20T10:25:55.626Z,18.70
2018-04-20T10:27:50.085Z,9.00
2018-04-20T10:28:50.081Z,8.70
2018-04-20T10:30:44.464Z,10.60
2018-04-20T10:31:44.426Z,9.80
2018-04-20T10:33:38.840Z,8.60
2018-04-20T10:34:38.797Z,7.30
2018-04-20T10:36:33.350Z,18.60
2018-04-20T10:37:33.208Z,14.90
2018-04-20T10:39:27.598Z,11.10
2018-04-20T10:40:27.606Z,9.40
2018-04-20T10:42:22.518Z,8.60
2018-04-20T10:43:21.996Z,12.50
2018-04-20T10:45:16.387Z,8.10
2018-04-20T10:46:16.389Z,10.10
2018-04-20T10:48:10.838Z,9.20
2018-04-20T10:49:10.785Z,7.00
2018-04-20T10:51:05.174Z,9.30
2018-04-20T10:52:05.187Z,12.60
2018-04-20T10:53:59.617Z,5.10
2018-04-20T10:54:59.571Z,7.60
2018-04-20T10:56:53.971Z,7.80
2018-04-20T10:57:53.964Z,9.20
2018-04-20T10:59:48.475Z,6.90
2018-04-20T11:00:48.368Z,7.00
2018-04-20T11:02:42.817Z,7.90
2018-04-20T11:03:42.766Z,6.40
2018-04-20T11:05:37.159Z,5.30
2018-04-20T11:06:37.158Z,6.20
2018-04-20T11:08:31.642Z,7.20
2018-04-20T11:09:31.565Z,10.70
2018-04-20T11:11:25.981Z,8.80
2018-04-20T11:12:25.959Z,11.60
2018-04-20T11:14:20.421Z,10.40
2018-04-20T11:15:20.379Z,8.70
2018-04-20T11:17:14.880Z,6.40
2018-04-20T11:18:14.775Z,7.00
2018-04-20T11:20:09.168Z,5.00
2018-04-20T11:21:09.169Z,9.80
2018-04-20T11:23:03.739Z,9.30
2018-04-20T11:24:03.570Z,6.20
2018-04-20T11:25:57.958Z,8.70
2018-04-20T11:26:57.961Z,10.40
2018-04-20T11:28:52.648Z,9.30
2018-04-20T11:29:52.359Z,6.50
2018-04-20T11:31:46.787Z,10.00
2018-04-20T11:32:46.790Z,8.30
2018-04-20T11:34:41.289Z,7.30
2018-04-20T11:35:41.182Z,14.60
2018-04-20T11:37:35.610Z,6.00
2018-04-20T11:38:35.584Z,5.80
2018-04-20T11:40:29.956Z,6.30
2018-04-20T11:41:29.967Z,5.10
2018-04-20T11:43:24.424Z,5.60
2018-04-20T11:44:24.469Z,6.20
2018-04-20T11:46:25.759Z,8.00
2018-04-20T11:47:25.740Z,5.90
2018-04-20T11:49:20.100Z,10.50
2018-04-20T11:50:20.106Z,8.40
2018-04-20T11:52:14.630Z,6.80
2018-04-20T11:53:14.523Z,5.60
2018-04-20T11:55:11.581Z,7.20
2018-04-20T11:56:10.228Z,7.80
2018-04-20T11:58:04.723Z,6.50
2018-04-20T11:59:04.619Z,7.90
2018-04-20T12:00:59.013Z,7.70
2018-04-20T12:01:59.015Z,7.20
2018-04-20T12:03:53.489Z,6.30
2018-04-20T12:04:53.431Z,6.00
2018-04-20T12:06:47.862Z,7.80
2018-04-20T12:07:47.836Z,6.00
2018-04-20T12:09:42.279Z,7.00
2018-04-20T12:10:42.224Z,10.20
2018-04-20T12:12:36.682Z,9.30
2018-04-20T12:13:36.618Z,9.10
2018-04-20T12:15:31.159Z,10.10
2018-04-20T12:16:31.047Z,6.40
2018-04-20T12:18:25.459Z,10.10
2018-04-20T12:19:25.464Z,7.00
2018-04-20T12:21:20.008Z,10.20
2018-04-20T12:22:19.864Z,8.00
2018-04-20T12:24:14.275Z,12.50
2018-04-20T12:25:14.261Z,10.10
2018-04-20T12:27:08.743Z,8.00
2018-04-20T12:28:08.658Z,7.20
2018-04-20T12:30:03.053Z,18.20
2018-04-20T12:31:03.065Z,9.90
2018-04-20T12:32:57.560Z,8.20
2018-04-20T12:33:57.454Z,9.50
2018-04-20T12:35:51.892Z,8.10
2018-04-20T12:36:51.848Z,5.10
2018-04-20T12:38:46.255Z,7.10
2018-04-20T12:39:46.246Z,6.50
2018-04-20T12:41:40.690Z,7.60
2018-04-20T12:42:40.642Z,7.70
2018-04-20T12:44:35.040Z,9.40
2018-04-20T12:45:35.088Z,8.50
2018-04-20T12:47:29.642Z,7.60
2018-04-20T12:48:29.454Z,10.20
2018-04-20T12:50:23.925Z,6.50
2018-04-20T12:51:23.943Z,8.30
2018-04-20T12:53:18.372Z,7.40
2018-04-20T12:54:18.333Z,8.10
2018-04-20T12:56:13.332Z,8.00
2018-04-20T12:57:12.909Z,4.80
2018-04-20T12:59:07.327Z,7.40
2018-04-20T13:00:07.811Z,8.00
2018-04-20T13:02:01.937Z,5.50
2018-04-20T13:03:01.715Z,6.00
2018-04-20T13:04:56.101Z,4.60
2018-04-20T13:05:56.109Z,6.50
2018-04-20T13:07:50.618Z,6.40
2018-04-20T13:08:50.518Z,6.30
2018-04-20T13:10:44.916Z,10.50
2018-04-20T13:11:44.921Z,5.00
2018-04-20T13:13:39.348Z,7.50
2018-04-20T13:14:39.358Z,7.30
2018-04-20T13:16:33.757Z,7.00
2018-04-20T13:17:33.708Z,10.20
2018-04-20T13:19:28.100Z,7.40
2018-04-20T13:20:28.113Z,6.90
2018-04-20T13:22:22.574Z,6.40
2018-04-20T13:23:22.539Z,6.70
2018-04-20T13:25:17.047Z,7.00
2018-04-20T13:26:16.940Z,7.80
2018-04-20T13:28:11.394Z,13.00
2018-04-20T13:29:11.360Z,12.50
2018-04-20T13:31:06.677Z,5.40
2018-04-20T13:32:05.735Z,10.40
2018-04-20T13:34:00.127Z,9.30
2018-04-20T13:35:00.718Z,8.20
2018-04-20T13:36:54.656Z,8.10
2018-04-20T13:37:54.574Z,7.40
2018-04-20T13:39:49.432Z,5.30
2018-04-20T13:40:48.978Z,5.60
2018-04-20T13:42:43.376Z,6.20
2018-04-20T13:43:43.382Z,6.20
2018-04-20T13:45:38.352Z,5.50
2018-04-20T13:46:37.780Z,5.70
2018-04-20T13:48:33.596Z,6.40
2018-04-20T13:49:32.186Z,10.90
2018-04-20T13:51:26.685Z,10.40
2018-04-20T13:52:26.594Z,6.40
2018-04-20T13:54:21.018Z,5.30
2018-04-20T13:55:21.586Z,9.10
2018-04-20T13:57:15.386Z,7.50
2018-04-20T13:58:15.375Z,7.10
2018-04-20T14:00:14.673Z,8.40
2018-04-20T14:01:14.562Z,8.30
2018-04-20T14:03:19.461Z,8.60
2018-04-20T14:04:08.994Z,7.70
2018-04-20T14:06:03.784Z,10.30
2018-04-20T14:07:03.401Z,10.00
2018-04-20T14:08:58.625Z,8.30
2018-04-20T14:09:58.007Z,6.80
2018-04-20T14:11:52.249Z,9.20
2018-04-20T14:12:52.377Z,9.00
2018-04-20T14:14:46.623Z,10.10
2018-04-20T14:15:46.625Z,12.50
2018-04-20T14:17:45.861Z,4.80
2018-04-20T14:18:41.025Z,5.20
2018-04-20T14:20:35.532Z,6.20
2018-04-20T14:21:35.423Z,10.70
2018-04-20T14:23:31.427Z,5.00
2018-04-20T14:24:29.821Z,7.50
2018-04-20T14:26:24.920Z,7.30
2018-04-20T14:27:24.220Z,8.10
2018-04-20T14:29:18.707Z,7.50
2018-04-20T14:30:18.616Z,5.40
2018-04-20T14:32:13.045Z,6.50
2018-04-20T14:33:13.307Z,8.60
2018-04-20T14:35:07.490Z,6.70
2018-04-20T14:36:07.432Z,6.50
2018-04-20T14:38:01.831Z,4.70
2018-04-20T14:39:01.832Z,7.00
2018-04-20T14:40:01.894Z,8.00
2018-04-20T14:41:01.845Z,10.50
2018-04-20T14:42:01.853Z,7.30
2018-04-20T14:43:01.864Z,8.50
2018-04-20T14:44:01.915Z,9.10
2018-04-20T14:45:02.244Z,7.80
2018-04-20T14:46:01.884Z,7.50
2018-04-20T14:47:02.236Z,6.00
2018-04-20T14:48:01.896Z,7.30
2018-04-20T14:49:01.909Z,8.90
2018-04-20T14:50:01.913Z,7.60
2018-04-20T14:51:02.876Z,8.60